sensor_id;sensor_type;location;lat;lon;timestamp;P1;durP1;ratioP1;P2;durP2;ratioP2
24567;SDS011;12731;52.182;8.716;2023-05-07T00:01:04;29.50;;;23.15;;
24567;SDS011;12731;52.182;8.716;2023-05-07T00:03:32;28.50;;;23.35;;
24567;SDS011;12731;52.182;8.716;2023-05-07T00:05:59;27.88;;;22.40;;
24567;SDS011;12731;52.182;8.716;2023-05-07T00:08:25;28.95;;;22.90;;
24567;SDS011;12731;52.182;8.716;2023-05-07T00:10:52;31.13;;;24.15;;
24567;SDS011;12731;52.182;8.716;2023-05-07T00:13:19;31.70;;;24.23;;
24567;SDS011;12731;52.182;8.716;2023-05-07T00:15:45;32.28;;;24.52;;
24567;SDS011;12731;52.182;8.716;2023-05-07T00:18:11;31.95;;;24.25;;
24567;SDS011;12731;52.182;8.716;2023-05-07T00:20:38;28.17;;;23.25;;
24567;SDS011;12731;52.182;8.716;2023-05-07T00:23:04;27.08;;;22.58;;
24567;SDS011;12731;52.182;8.716;2023-05-07T00:25:31;30.02;;;23.20;;
24567;SDS011;12731;52.182;8.716;2023-05-07T00:27:57;29.23;;;23.00;;
24567;SDS011;12731;52.182;8.716;2023-05-07T00:30:28;29.38;;;23.10;;
24567;SDS011;12731;52.182;8.716;2023-05-07T00:32:55;30.40;;;23.60;;
24567;SDS011;12731;52.182;8.716;2023-05-07T00:35:21;28.02;;;23.02;;
24567;SDS011;12731;52.182;8.716;2023-05-07T00:37:48;32.80;;;23.77;;
24567;SDS011;12731;52.182;8.716;2023-05-07T00:40:15;28.38;;;22.95;;
24567;SDS011;12731;52.182;8.716;2023-05-07T00:42:41;28.27;;;24.45;;
24567;SDS011;12731;52.182;8.716;2023-05-07T00:45:07;26.83;;;22.77;;
24567;SDS011;12731;52.182;8.716;2023-05-07T00:47:35;26.85;;;22.73;;
24567;SDS011;12731;52.182;8.716;2023-05-07T00:50:01;28.70;;;23.33;;
24567;SDS011;12731;52.182;8.716;2023-05-07T00:52:29;29.05;;;23.25;;
24567;SDS011;12731;52.182;8.716;2023-05-07T00:54:56;28.35;;;23.02;;
24567;SDS011;12731;52.182;8.716;2023-05-07T00:57:23;31.33;;;23.05;;
24567;SDS011;12731;52.182;8.716;2023-05-07T00:59:50;29.50;;;23.52;;
24567;SDS011;12731;52.182;8.716;2023-05-07T01:02:17;32.50;;;24.00;;
24567;SDS011;12731;52.182;8.716;2023-05-07T01:04:44;29.52;;;23.58;;
24567;SDS011;12731;52.182;8.716;2023-05-07T01:07:11;28.95;;;22.35;;
24567;SDS011;12731;52.182;8.716;2023-05-07T01:09:37;28.02;;;23.27;;
24567;SDS011;12731;52.182;8.716;2023-05-07T01:12:03;28.88;;;23.77;;
24567;SDS011;12731;52.182;8.716;2023-05-07T01:14:30;29.33;;;23.88;;
24567;SDS011;12731;52.182;8.716;2023-05-07T01:16:59;30.05;;;23.45;;
24567;SDS011;12731;52.182;8.716;2023-05-07T01:19:25;29.15;;;23.20;;
24567;SDS011;12731;52.182;8.716;2023-05-07T01:21:53;30.45;;;24.02;;
24567;SDS011;12731;52.182;8.716;2023-05-07T01:24:25;27.92;;;23.10;;
24567;SDS011;12731;52.182;8.716;2023-05-07T01:26:51;27.08;;;23.38;;
24567;SDS011;12731;52.182;8.716;2023-05-07T01:29:18;26.55;;;22.83;;
24567;SDS011;12731;52.182;8.716;2023-05-07T01:31:44;27.33;;;22.25;;
24567;SDS011;12731;52.182;8.716;2023-05-07T01:34:11;30.65;;;24.00;;
24567;SDS011;12731;52.182;8.716;2023-05-07T01:36:39;27.38;;;22.42;;
24567;SDS011;12731;52.182;8.716;2023-05-07T01:39:06;29.40;;;23.83;;
24567;SDS011;12731;52.182;8.716;2023-05-07T01:41:32;28.90;;;23.35;;
24567;SDS011;12731;52.182;8.716;2023-05-07T01:43:59;30.15;;;23.15;;
24567;SDS011;12731;52.182;8.716;2023-05-07T01:46:26;29.98;;;23.65;;
24567;SDS011;12731;52.182;8.716;2023-05-07T01:48:52;27.13;;;22.75;;
24567;SDS011;12731;52.182;8.716;2023-05-07T01:51:20;28.20;;;23.40;;
24567;SDS011;12731;52.182;8.716;2023-05-07T01:53:47;29.65;;;24.85;;
24567;SDS011;12731;52.182;8.716;2023-05-07T01:56:17;29.63;;;23.77;;
24567;SDS011;12731;52.182;8.716;2023-05-07T01:58:44;29.67;;;23.88;;
24567;SDS011;12731;52.182;8.716;2023-05-07T02:01:12;30.02;;;23.05;;
24567;SDS011;12731;52.182;8.716;2023-05-07T02:03:39;32.70;;;24.63;;
24567;SDS011;12731;52.182;8.716;2023-05-07T02:06:06;29.30;;;23.00;;
24567;SDS011;12731;52.182;8.716;2023-05-07T02:08:32;29.83;;;23.25;;
24567;SDS011;12731;52.182;8.716;2023-05-07T02:10:59;30.20;;;24.88;;
24567;SDS011;12731;52.182;8.716;2023-05-07T02:13:28;30.30;;;24.70;;
24567;SDS011;12731;52.182;8.716;2023-05-07T02:15:55;31.48;;;24.52;;
24567;SDS011;12731;52.182;8.716;2023-05-07T02:18:22;31.90;;;24.45;;
24567;SDS011;12731;52.182;8.716;2023-05-07T02:20:48;30.48;;;25.20;;
24567;SDS011;12731;52.182;8.716;2023-05-07T02:23:14;28.92;;;23.77;;
24567;SDS011;12731;52.182;8.716;2023-05-07T02:25:41;29.88;;;23.80;;
24567;SDS011;12731;52.182;8.716;2023-05-07T02:28:07;30.25;;;24.92;;
24567;SDS011;12731;52.182;8.716;2023-05-07T02:30:34;29.75;;;24.02;;
24567;SDS011;12731;52.182;8.716;2023-05-07T02:33:00;31.02;;;25.80;;
24567;SDS011;12731;52.182;8.716;2023-05-07T02:35:27;29.55;;;24.88;;
24567;SDS011;12731;52.182;8.716;2023-05-07T02:37:53;30.70;;;25.45;;
24567;SDS011;12731;52.182;8.716;2023-05-07T02:40:19;33.13;;;25.58;;
24567;SDS011;12731;52.182;8.716;2023-05-07T02:42:46;32.42;;;25.42;;
24567;SDS011;12731;52.182;8.716;2023-05-07T02:45:13;28.60;;;24.33;;
24567;SDS011;12731;52.182;8.716;2023-05-07T02:47:40;34.05;;;26.50;;
24567;SDS011;12731;52.182;8.716;2023-05-07T02:50:07;29.10;;;24.45;;
24567;SDS011;12731;52.182;8.716;2023-05-07T02:52:33;31.33;;;25.58;;
24567;SDS011;12731;52.182;8.716;2023-05-07T02:55:00;30.65;;;25.80;;
24567;SDS011;12731;52.182;8.716;2023-05-07T02:57:26;32.47;;;26.40;;
24567;SDS011;12731;52.182;8.716;2023-05-07T02:59:53;34.42;;;27.85;;
24567;SDS011;12731;52.182;8.716;2023-05-07T03:02:19;32.33;;;27.35;;
24567;SDS011;12731;52.182;8.716;2023-05-07T03:04:46;34.95;;;27.45;;
24567;SDS011;12731;52.182;8.716;2023-05-07T03:07:12;35.13;;;28.25;;
24567;SDS011;12731;52.182;8.716;2023-05-07T03:09:39;33.38;;;27.45;;
24567;SDS011;12731;52.182;8.716;2023-05-07T03:12:05;33.13;;;27.95;;
24567;SDS011;12731;52.182;8.716;2023-05-07T03:14:32;36.28;;;29.88;;
24567;SDS011;12731;52.182;8.716;2023-05-07T03:16:58;37.75;;;28.95;;
24567;SDS011;12731;52.182;8.716;2023-05-07T03:19:25;36.05;;;28.75;;
24567;SDS011;12731;52.182;8.716;2023-05-07T03:21:51;39.40;;;29.73;;
24567;SDS011;12731;52.182;8.716;2023-05-07T03:24:17;37.83;;;28.65;;
24567;SDS011;12731;52.182;8.716;2023-05-07T03:26:44;35.97;;;29.23;;
24567;SDS011;12731;52.182;8.716;2023-05-07T03:29:10;37.05;;;28.02;;
24567;SDS011;12731;52.182;8.716;2023-05-07T03:31:37;37.35;;;30.15;;
24567;SDS011;12731;52.182;8.716;2023-05-07T03:34:03;38.42;;;29.63;;
24567;SDS011;12731;52.182;8.716;2023-05-07T03:36:30;36.33;;;28.58;;
24567;SDS011;12731;52.182;8.716;2023-05-07T03:38:56;38.25;;;29.95;;
24567;SDS011;12731;52.182;8.716;2023-05-07T03:41:23;39.15;;;30.20;;
24567;SDS011;12731;52.182;8.716;2023-05-07T03:43:49;38.20;;;29.73;;
24567;SDS011;12731;52.182;8.716;2023-05-07T03:46:15;43.28;;;31.58;;
24567;SDS011;12731;52.182;8.716;2023-05-07T03:48:42;38.35;;;30.08;;
24567;SDS011;12731;52.182;8.716;2023-05-07T03:51:08;40.63;;;30.73;;
24567;SDS011;12731;52.182;8.716;2023-05-07T03:53:35;40.50;;;30.27;;
24567;SDS011;12731;52.182;8.716;2023-05-07T03:56:01;40.85;;;31.40;;
24567;SDS011;12731;52.182;8.716;2023-05-07T03:58:27;43.20;;;31.80;;
24567;SDS011;12731;52.182;8.716;2023-05-07T04:00:54;41.10;;;30.50;;
24567;SDS011;12731;52.182;8.716;2023-05-07T04:03:20;43.25;;;32.00;;
24567;SDS011;12731;52.182;8.716;2023-05-07T04:05:47;42.05;;;32.05;;
24567;SDS011;12731;52.182;8.716;2023-05-07T04:08:13;42.33;;;32.20;;
24567;SDS011;12731;52.182;8.716;2023-05-07T04:10:40;42.88;;;31.85;;
24567;SDS011;12731;52.182;8.716;2023-05-07T04:13:06;43.15;;;31.30;;
24567;SDS011;12731;52.182;8.716;2023-05-07T04:15:33;42.45;;;31.60;;
24567;SDS011;12731;52.182;8.716;2023-05-07T04:17:59;42.92;;;31.58;;
24567;SDS011;12731;52.182;8.716;2023-05-07T04:20:26;44.13;;;32.00;;
24567;SDS011;12731;52.182;8.716;2023-05-07T04:22:52;41.13;;;31.35;;
24567;SDS011;12731;52.182;8.716;2023-05-07T04:25:19;42.25;;;30.38;;
24567;SDS011;12731;52.182;8.716;2023-05-07T04:27:45;42.63;;;31.50;;
24567;SDS011;12731;52.182;8.716;2023-05-07T04:30:12;42.65;;;31.27;;
24567;SDS011;12731;52.182;8.716;2023-05-07T04:32:39;44.78;;;32.50;;
24567;SDS011;12731;52.182;8.716;2023-05-07T04:35:06;41.13;;;31.95;;
24567;SDS011;12731;52.182;8.716;2023-05-07T04:37:33;42.25;;;32.15;;
24567;SDS011;12731;52.182;8.716;2023-05-07T04:39:59;41.90;;;31.83;;
24567;SDS011;12731;52.182;8.716;2023-05-07T04:42:26;43.97;;;31.90;;
24567;SDS011;12731;52.182;8.716;2023-05-07T04:44:53;42.28;;;32.28;;
24567;SDS011;12731;52.182;8.716;2023-05-07T04:47:20;44.83;;;32.30;;
24567;SDS011;12731;52.182;8.716;2023-05-07T04:49:46;43.05;;;31.45;;
24567;SDS011;12731;52.182;8.716;2023-05-07T04:52:12;43.88;;;31.73;;
24567;SDS011;12731;52.182;8.716;2023-05-07T04:54:39;42.65;;;31.73;;
24567;SDS011;12731;52.182;8.716;2023-05-07T04:57:05;41.78;;;30.77;;
24567;SDS011;12731;52.182;8.716;2023-05-07T04:59:32;41.50;;;31.58;;
24567;SDS011;12731;52.182;8.716;2023-05-07T05:01:59;41.75;;;31.15;;
24567;SDS011;12731;52.182;8.716;2023-05-07T05:04:25;42.75;;;30.70;;
24567;SDS011;12731;52.182;8.716;2023-05-07T05:06:52;41.30;;;30.40;;
24567;SDS011;12731;52.182;8.716;2023-05-07T05:09:18;41.00;;;29.88;;
24567;SDS011;12731;52.182;8.716;2023-05-07T05:11:45;39.78;;;30.25;;
24567;SDS011;12731;52.182;8.716;2023-05-07T05:14:11;40.67;;;29.75;;
24567;SDS011;12731;52.182;8.716;2023-05-07T05:16:38;43.53;;;30.55;;
24567;SDS011;12731;52.182;8.716;2023-05-07T05:19:05;40.55;;;29.88;;
24567;SDS011;12731;52.182;8.716;2023-05-07T05:21:31;40.78;;;29.67;;
24567;SDS011;12731;52.182;8.716;2023-05-07T05:23:58;42.90;;;29.92;;
24567;SDS011;12731;52.182;8.716;2023-05-07T05:26:24;38.38;;;28.30;;
24567;SDS011;12731;52.182;8.716;2023-05-07T05:28:50;37.67;;;28.38;;
24567;SDS011;12731;52.182;8.716;2023-05-07T05:31:17;34.75;;;26.58;;
24567;SDS011;12731;52.182;8.716;2023-05-07T05:33:43;38.60;;;27.45;;
24567;SDS011;12731;52.182;8.716;2023-05-07T05:36:10;37.88;;;27.95;;
24567;SDS011;12731;52.182;8.716;2023-05-07T05:38:39;33.10;;;26.25;;
24567;SDS011;12731;52.182;8.716;2023-05-07T05:41:06;34.35;;;26.15;;
24567;SDS011;12731;52.182;8.716;2023-05-07T05:43:32;36.28;;;26.35;;
24567;SDS011;12731;52.182;8.716;2023-05-07T05:45:59;35.97;;;26.15;;
24567;SDS011;12731;52.182;8.716;2023-05-07T05:48:26;35.50;;;25.80;;
24567;SDS011;12731;52.182;8.716;2023-05-07T05:50:53;33.78;;;25.58;;
24567;SDS011;12731;52.182;8.716;2023-05-07T05:53:19;36.97;;;26.65;;
24567;SDS011;12731;52.182;8.716;2023-05-07T05:55:45;37.40;;;25.90;;
24567;SDS011;12731;52.182;8.716;2023-05-07T05:58:12;32.30;;;22.63;;
24567;SDS011;12731;52.182;8.716;2023-05-07T06:00:38;32.25;;;23.52;;
24567;SDS011;12731;52.182;8.716;2023-05-07T06:03:05;31.38;;;24.20;;
24567;SDS011;12731;52.182;8.716;2023-05-07T06:05:32;35.85;;;25.48;;
24567;SDS011;12731;52.182;8.716;2023-05-07T06:07:58;29.95;;;23.23;;
24567;SDS011;12731;52.182;8.716;2023-05-07T06:10:25;30.75;;;23.02;;
24567;SDS011;12731;52.182;8.716;2023-05-07T06:12:52;31.02;;;23.25;;
24567;SDS011;12731;52.182;8.716;2023-05-07T06:15:18;28.50;;;20.95;;
24567;SDS011;12731;52.182;8.716;2023-05-07T06:17:45;28.95;;;21.65;;
24567;SDS011;12731;52.182;8.716;2023-05-07T06:20:11;27.88;;;22.33;;
24567;SDS011;12731;52.182;8.716;2023-05-07T06:22:38;28.95;;;22.25;;
24567;SDS011;12731;52.182;8.716;2023-05-07T06:25:05;27.90;;;21.02;;
24567;SDS011;12731;52.182;8.716;2023-05-07T06:27:31;29.30;;;22.63;;
24567;SDS011;12731;52.182;8.716;2023-05-07T06:29:58;28.13;;;21.45;;
24567;SDS011;12731;52.182;8.716;2023-05-07T06:32:24;27.20;;;21.90;;
24567;SDS011;12731;52.182;8.716;2023-05-07T06:34:51;28.63;;;22.40;;
24567;SDS011;12731;52.182;8.716;2023-05-07T06:37:17;27.63;;;21.33;;
24567;SDS011;12731;52.182;8.716;2023-05-07T06:39:44;28.98;;;20.13;;
24567;SDS011;12731;52.182;8.716;2023-05-07T06:42:10;26.15;;;20.05;;
24567;SDS011;12731;52.182;8.716;2023-05-07T06:44:36;26.65;;;21.02;;
24567;SDS011;12731;52.182;8.716;2023-05-07T06:47:03;25.83;;;20.67;;
24567;SDS011;12731;52.182;8.716;2023-05-07T06:49:29;25.20;;;19.63;;
24567;SDS011;12731;52.182;8.716;2023-05-07T06:51:56;25.23;;;19.88;;
24567;SDS011;12731;52.182;8.716;2023-05-07T06:54:22;27.00;;;20.05;;
24567;SDS011;12731;52.182;8.716;2023-05-07T06:56:49;23.73;;;18.85;;
24567;SDS011;12731;52.182;8.716;2023-05-07T06:59:16;23.88;;;19.02;;
24567;SDS011;12731;52.182;8.716;2023-05-07T07:01:42;23.08;;;19.33;;
24567;SDS011;12731;52.182;8.716;2023-05-07T07:04:08;24.42;;;19.63;;
24567;SDS011;12731;52.182;8.716;2023-05-07T07:06:35;25.75;;;20.25;;
24567;SDS011;12731;52.182;8.716;2023-05-07T07:09:01;23.73;;;19.13;;
24567;SDS011;12731;52.182;8.716;2023-05-07T07:11:28;23.52;;;19.55;;
24567;SDS011;12731;52.182;8.716;2023-05-07T07:13:54;22.58;;;18.73;;
24567;SDS011;12731;52.182;8.716;2023-05-07T07:16:21;23.30;;;18.67;;
24567;SDS011;12731;52.182;8.716;2023-05-07T07:18:48;23.20;;;18.60;;
24567;SDS011;12731;52.182;8.716;2023-05-07T07:21:14;24.35;;;18.65;;
24567;SDS011;12731;52.182;8.716;2023-05-07T07:23:40;24.75;;;18.77;;
24567;SDS011;12731;52.182;8.716;2023-05-07T07:26:07;27.35;;;19.38;;
24567;SDS011;12731;52.182;8.716;2023-05-07T07:28:33;22.98;;;17.40;;
24567;SDS011;12731;52.182;8.716;2023-05-07T07:31:00;22.67;;;18.48;;
24567;SDS011;12731;52.182;8.716;2023-05-07T07:33:26;23.77;;;18.48;;
24567;SDS011;12731;52.182;8.716;2023-05-07T07:35:55;22.20;;;17.98;;
24567;SDS011;12731;52.182;8.716;2023-05-07T07:38:21;24.38;;;18.27;;
24567;SDS011;12731;52.182;8.716;2023-05-07T07:40:48;21.27;;;18.02;;
24567;SDS011;12731;52.182;8.716;2023-05-07T07:43:14;22.05;;;17.30;;
24567;SDS011;12731;52.182;8.716;2023-05-07T07:45:40;22.67;;;16.90;;
24567;SDS011;12731;52.182;8.716;2023-05-07T07:48:07;21.23;;;17.20;;
24567;SDS011;12731;52.182;8.716;2023-05-07T07:50:34;20.63;;;16.50;;
24567;SDS011;12731;52.182;8.716;2023-05-07T07:53:10;18.48;;;15.30;;
24567;SDS011;12731;52.182;8.716;2023-05-07T07:55:40;20.67;;;15.57;;
24567;SDS011;12731;52.182;8.716;2023-05-07T07:58:06;21.25;;;15.98;;
24567;SDS011;12731;52.182;8.716;2023-05-07T08:00:33;19.30;;;15.40;;
24567;SDS011;12731;52.182;8.716;2023-05-07T08:02:59;17.20;;;14.25;;
24567;SDS011;12731;52.182;8.716;2023-05-07T08:05:26;18.77;;;14.73;;
24567;SDS011;12731;52.182;8.716;2023-05-07T08:07:53;18.83;;;14.18;;
24567;SDS011;12731;52.182;8.716;2023-05-07T08:10:20;15.32;;;13.73;;
24567;SDS011;12731;52.182;8.716;2023-05-07T08:12:48;16.00;;;13.43;;
24567;SDS011;12731;52.182;8.716;2023-05-07T08:15:15;15.68;;;13.07;;
24567;SDS011;12731;52.182;8.716;2023-05-07T08:17:42;16.02;;;13.25;;
24567;SDS011;12731;52.182;8.716;2023-05-07T08:20:09;15.73;;;12.70;;
24567;SDS011;12731;52.182;8.716;2023-05-07T08:22:36;16.40;;;13.70;;
24567;SDS011;12731;52.182;8.716;2023-05-07T08:25:03;13.48;;;11.75;;
24567;SDS011;12731;52.182;8.716;2023-05-07T08:27:29;18.30;;;12.70;;
24567;SDS011;12731;52.182;8.716;2023-05-07T08:29:56;13.93;;;12.00;;
24567;SDS011;12731;52.182;8.716;2023-05-07T08:32:22;13.10;;;11.35;;
24567;SDS011;12731;52.182;8.716;2023-05-07T08:34:49;14.55;;;12.27;;
24567;SDS011;12731;52.182;8.716;2023-05-07T08:37:15;14.43;;;11.38;;
24567;SDS011;12731;52.182;8.716;2023-05-07T08:39:41;13.13;;;11.57;;
24567;SDS011;12731;52.182;8.716;2023-05-07T08:42:08;13.57;;;11.15;;
24567;SDS011;12731;52.182;8.716;2023-05-07T08:44:35;12.45;;;10.48;;
24567;SDS011;12731;52.182;8.716;2023-05-07T08:47:06;12.27;;;10.52;;
24567;SDS011;12731;52.182;8.716;2023-05-07T08:49:33;11.32;;;10.13;;
24567;SDS011;12731;52.182;8.716;2023-05-07T08:52:00;11.32;;;9.95;;
24567;SDS011;12731;52.182;8.716;2023-05-07T08:54:27;12.95;;;9.93;;
24567;SDS011;12731;52.182;8.716;2023-05-07T08:56:53;10.70;;;9.43;;
24567;SDS011;12731;52.182;8.716;2023-05-07T08:59:20;11.30;;;9.18;;
24567;SDS011;12731;52.182;8.716;2023-05-07T09:01:46;9.43;;;8.43;;
24567;SDS011;12731;52.182;8.716;2023-05-07T09:04:13;9.75;;;8.75;;
24567;SDS011;12731;52.182;8.716;2023-05-07T09:06:40;9.35;;;7.82;;
24567;SDS011;12731;52.182;8.716;2023-05-07T09:09:07;9.18;;;8.23;;
24567;SDS011;12731;52.182;8.716;2023-05-07T09:11:34;10.05;;;8.30;;
24567;SDS011;12731;52.182;8.716;2023-05-07T09:14:00;9.73;;;8.27;;
24567;SDS011;12731;52.182;8.716;2023-05-07T09:16:29;9.32;;;8.00;;
24567;SDS011;12731;52.182;8.716;2023-05-07T09:18:57;9.02;;;7.70;;
24567;SDS011;12731;52.182;8.716;2023-05-07T09:21:24;9.95;;;8.68;;
24567;SDS011;12731;52.182;8.716;2023-05-07T09:23:52;9.63;;;8.27;;
24567;SDS011;12731;52.182;8.716;2023-05-07T09:26:22;9.10;;;7.75;;
24567;SDS011;12731;52.182;8.716;2023-05-07T09:28:50;8.30;;;7.40;;
24567;SDS011;12731;52.182;8.716;2023-05-07T09:31:17;9.60;;;7.78;;
24567;SDS011;12731;52.182;8.716;2023-05-07T09:33:46;8.48;;;7.57;;
24567;SDS011;12731;52.182;8.716;2023-05-07T09:36:12;8.60;;;7.75;;
24567;SDS011;12731;52.182;8.716;2023-05-07T09:38:40;8.60;;;7.43;;
24567;SDS011;12731;52.182;8.716;2023-05-07T09:41:10;7.57;;;6.78;;
24567;SDS011;12731;52.182;8.716;2023-05-07T09:43:38;8.25;;;7.35;;
24567;SDS011;12731;52.182;8.716;2023-05-07T09:46:11;9.50;;;7.25;;
24567;SDS011;12731;52.182;8.716;2023-05-07T09:48:42;8.98;;;7.75;;
24567;SDS011;12731;52.182;8.716;2023-05-07T09:51:18;8.07;;;7.22;;
24567;SDS011;12731;52.182;8.716;2023-05-07T09:53:48;7.50;;;6.57;;
24567;SDS011;12731;52.182;8.716;2023-05-07T09:56:16;7.47;;;6.68;;
24567;SDS011;12731;52.182;8.716;2023-05-07T09:58:43;8.48;;;6.65;;
24567;SDS011;12731;52.182;8.716;2023-05-07T10:01:12;8.18;;;7.38;;
24567;SDS011;12731;52.182;8.716;2023-05-07T10:03:42;7.90;;;7.10;;
24567;SDS011;12731;52.182;8.716;2023-05-07T10:06:09;7.38;;;6.60;;
24567;SDS011;12731;52.182;8.716;2023-05-07T10:08:36;7.88;;;7.07;;
24567;SDS011;12731;52.182;8.716;2023-05-07T10:11:06;7.85;;;7.05;;
24567;SDS011;12731;52.182;8.716;2023-05-07T10:13:33;7.00;;;6.30;;
24567;SDS011;12731;52.182;8.716;2023-05-07T10:16:04;8.30;;;6.75;;
24567;SDS011;12731;52.182;8.716;2023-05-07T10:18:31;6.90;;;6.20;;
24567;SDS011;12731;52.182;8.716;2023-05-07T10:21:02;7.47;;;6.72;;
24567;SDS011;12731;52.182;8.716;2023-05-07T10:23:33;6.60;;;5.90;;
24567;SDS011;12731;52.182;8.716;2023-05-07T10:26:01;7.22;;;6.47;;
24567;SDS011;12731;52.182;8.716;2023-05-07T10:28:30;7.20;;;6.30;;
24567;SDS011;12731;52.182;8.716;2023-05-07T10:33:58;9.70;;;8.10;;
24567;SDS011;12731;52.182;8.716;2023-05-07T10:36:25;10.32;;;7.90;;
24567;SDS011;12731;52.182;8.716;2023-05-07T10:38:52;8.43;;;7.35;;
24567;SDS011;12731;52.182;8.716;2023-05-07T10:41:19;8.25;;;7.40;;
24567;SDS011;12731;52.182;8.716;2023-05-07T10:43:47;9.15;;;7.80;;
24567;SDS011;12731;52.182;8.716;2023-05-07T10:46:17;7.80;;;7.00;;
24567;SDS011;12731;52.182;8.716;2023-05-07T10:49:27;6.13;;;5.53;;
24567;SDS011;12731;52.182;8.716;2023-05-07T10:51:36;8.90;;;7.35;;
24567;SDS011;12731;52.182;8.716;2023-05-07T10:56:35;7.18;;;5.72;;
24567;SDS011;12731;52.182;8.716;2023-05-07T11:01:57;9.90;;;7.80;;
24567;SDS011;12731;52.182;8.716;2023-05-07T11:04:24;9.32;;;7.53;;
24567;SDS011;12731;52.182;8.716;2023-05-07T11:15:11;7.75;;;6.75;;
24567;SDS011;12731;52.182;8.716;2023-05-07T11:17:58;8.30;;;7.15;;
24567;SDS011;12731;52.182;8.716;2023-05-07T11:23:54;7.00;;;6.35;;
24567;SDS011;12731;52.182;8.716;2023-05-07T11:26:19;7.30;;;6.15;;
24567;SDS011;12731;52.182;8.716;2023-05-07T11:28:45;5.93;;;5.32;;
24567;SDS011;12731;52.182;8.716;2023-05-07T11:31:12;5.80;;;5.20;;
24567;SDS011;12731;52.182;8.716;2023-05-07T11:33:39;8.77;;;5.60;;
24567;SDS011;12731;52.182;8.716;2023-05-07T11:36:07;6.63;;;5.95;;
24567;SDS011;12731;52.182;8.716;2023-05-07T11:38:34;7.53;;;6.45;;
24567;SDS011;12731;52.182;8.716;2023-05-07T11:41:03;5.50;;;4.88;;
24567;SDS011;12731;52.182;8.716;2023-05-07T11:43:31;4.55;;;4.10;;
24567;SDS011;12731;52.182;8.716;2023-05-07T11:46:11;5.07;;;4.57;;
24567;SDS011;12731;52.182;8.716;2023-05-07T11:48:38;5.50;;;4.40;;
24567;SDS011;12731;52.182;8.716;2023-05-07T11:51:05;5.00;;;4.50;;
24567;SDS011;12731;52.182;8.716;2023-05-07T11:53:36;6.18;;;5.25;;
24567;SDS011;12731;52.182;8.716;2023-05-07T11:56:13;5.85;;;4.28;;
24567;SDS011;12731;52.182;8.716;2023-05-07T11:58:41;6.03;;;4.78;;
24567;SDS011;12731;52.182;8.716;2023-05-07T12:01:08;6.93;;;6.25;;
24567;SDS011;12731;52.182;8.716;2023-05-07T12:03:36;7.28;;;5.88;;
24567;SDS011;12731;52.182;8.716;2023-05-07T12:06:06;5.93;;;5.40;;
24567;SDS011;12731;52.182;8.716;2023-05-07T12:08:32;6.22;;;5.68;;
24567;SDS011;12731;52.182;8.716;2023-05-07T12:10:59;6.63;;;5.55;;
24567;SDS011;12731;52.182;8.716;2023-05-07T12:13:25;6.88;;;5.65;;
24567;SDS011;12731;52.182;8.716;2023-05-07T12:15:52;7.45;;;6.65;;
24567;SDS011;12731;52.182;8.716;2023-05-07T12:18:19;7.80;;;5.65;;
24567;SDS011;12731;52.182;8.716;2023-05-07T12:20:47;9.00;;;6.65;;
24567;SDS011;12731;52.182;8.716;2023-05-07T12:23:14;6.40;;;5.80;;
24567;SDS011;12731;52.182;8.716;2023-05-07T12:25:41;7.10;;;6.50;;
24567;SDS011;12731;52.182;8.716;2023-05-07T12:28:15;7.20;;;6.50;;
24567;SDS011;12731;52.182;8.716;2023-05-07T12:30:43;7.03;;;6.32;;
24567;SDS011;12731;52.182;8.716;2023-05-07T12:33:10;7.13;;;6.43;;
24567;SDS011;12731;52.182;8.716;2023-05-07T12:35:38;7.22;;;6.15;;
24567;SDS011;12731;52.182;8.716;2023-05-07T12:38:12;6.38;;;5.57;;
24567;SDS011;12731;52.182;8.716;2023-05-07T12:40:41;6.50;;;5.90;;
24567;SDS011;12731;52.182;8.716;2023-05-07T12:43:18;5.72;;;5.22;;
24567;SDS011;12731;52.182;8.716;2023-05-07T12:45:51;6.78;;;6.07;;
24567;SDS011;12731;52.182;8.716;2023-05-07T12:48:19;6.63;;;5.93;;
24567;SDS011;12731;52.182;8.716;2023-05-07T12:50:49;6.85;;;5.93;;
24567;SDS011;12731;52.182;8.716;2023-05-07T12:53:16;6.63;;;5.75;;
24567;SDS011;12731;52.182;8.716;2023-05-07T12:55:47;6.10;;;5.50;;
24567;SDS011;12731;52.182;8.716;2023-05-07T12:58:19;6.53;;;5.93;;
24567;SDS011;12731;52.182;8.716;2023-05-07T13:00:59;6.32;;;5.72;;
24567;SDS011;12731;52.182;8.716;2023-05-07T13:03:27;5.72;;;5.22;;
24567;SDS011;12731;52.182;8.716;2023-05-07T13:05:56;6.68;;;5.07;;
24567;SDS011;12731;52.182;8.716;2023-05-07T13:08:34;4.50;;;4.10;;
24567;SDS011;12731;52.182;8.716;2023-05-07T13:11:02;6.18;;;5.57;;
24567;SDS011;12731;52.182;8.716;2023-05-07T13:13:31;5.97;;;5.38;;
24567;SDS011;12731;52.182;8.716;2023-05-07T13:15:58;6.50;;;5.22;;
24567;SDS011;12731;52.182;8.716;2023-05-07T13:18:26;5.95;;;5.32;;
24567;SDS011;12731;52.182;8.716;2023-05-07T13:20:53;6.40;;;5.80;;
24567;SDS011;12731;52.182;8.716;2023-05-07T13:23:19;6.22;;;5.63;;
24567;SDS011;12731;52.182;8.716;2023-05-07T13:25:46;6.47;;;5.72;;
24567;SDS011;12731;52.182;8.716;2023-05-07T13:28:13;6.47;;;5.88;;
24567;SDS011;12731;52.182;8.716;2023-05-07T13:30:40;5.72;;;5.13;;
24567;SDS011;12731;52.182;8.716;2023-05-07T13:33:06;5.68;;;5.18;;
24567;SDS011;12731;52.182;8.716;2023-05-07T13:35:33;7.63;;;6.00;;
24567;SDS011;12731;52.182;8.716;2023-05-07T13:38:00;7.40;;;6.38;;
24567;SDS011;12731;52.182;8.716;2023-05-07T13:40:26;7.50;;;6.80;;
24567;SDS011;12731;52.182;8.716;2023-05-07T13:42:53;7.15;;;6.22;;
24567;SDS011;12731;52.182;8.716;2023-05-07T13:45:19;7.53;;;6.82;;
24567;SDS011;12731;52.182;8.716;2023-05-07T13:47:46;7.68;;;6.97;;
24567;SDS011;12731;52.182;8.716;2023-05-07T13:50:13;7.88;;;7.00;;
24567;SDS011;12731;52.182;8.716;2023-05-07T13:52:40;8.25;;;7.45;;
24567;SDS011;12731;52.182;8.716;2023-05-07T13:55:12;9.48;;;7.45;;
24567;SDS011;12731;52.182;8.716;2023-05-07T13:57:38;8.80;;;7.60;;
24567;SDS011;12731;52.182;8.716;2023-05-07T14:00:05;9.63;;;7.35;;
24567;SDS011;12731;52.182;8.716;2023-05-07T14:02:32;7.50;;;6.80;;
24567;SDS011;12731;52.182;8.716;2023-05-07T14:04:58;7.97;;;7.03;;
24567;SDS011;12731;52.182;8.716;2023-05-07T14:07:25;8.43;;;7.22;;
24567;SDS011;12731;52.182;8.716;2023-05-07T14:09:51;7.38;;;6.68;;
24567;SDS011;12731;52.182;8.716;2023-05-07T14:12:18;8.23;;;7.43;;
24567;SDS011;12731;52.182;8.716;2023-05-07T14:14:44;7.15;;;6.55;;
24567;SDS011;12731;52.182;8.716;2023-05-07T14:17:11;6.80;;;6.10;;
24567;SDS011;12731;52.182;8.716;2023-05-07T14:19:38;7.45;;;6.65;;
24567;SDS011;12731;52.182;8.716;2023-05-07T14:22:04;7.45;;;6.75;;
24567;SDS011;12731;52.182;8.716;2023-05-07T14:24:31;7.20;;;6.15;;
24567;SDS011;12731;52.182;8.716;2023-05-07T14:27:04;6.25;;;5.50;;
24567;SDS011;12731;52.182;8.716;2023-05-07T14:29:30;6.65;;;5.00;;
24567;SDS011;12731;52.182;8.716;2023-05-07T14:31:57;7.35;;;6.18;;
24567;SDS011;12731;52.182;8.716;2023-05-07T14:34:23;6.05;;;5.45;;
24567;SDS011;12731;52.182;8.716;2023-05-07T14:36:49;5.75;;;5.15;;
24567;SDS011;12731;52.182;8.716;2023-05-07T14:39:16;6.28;;;5.68;;
24567;SDS011;12731;52.182;8.716;2023-05-07T14:41:42;5.70;;;5.20;;
24567;SDS011;12731;52.182;8.716;2023-05-07T14:44:09;6.10;;;4.95;;
24567;SDS011;12731;52.182;8.716;2023-05-07T14:46:35;5.80;;;5.30;;
24567;SDS011;12731;52.182;8.716;2023-05-07T14:49:02;5.72;;;5.22;;
24567;SDS011;12731;52.182;8.716;2023-05-07T14:51:29;6.70;;;5.35;;